createdAt,value
2023-02-17T00:01:01.974Z,35.60
2023-02-17T00:03:28.752Z,40.17
2023-02-17T00:05:55.442Z,26.30
2023-02-17T00:08:22.170Z,21.73
2023-02-17T00:10:58.539Z,22.87
2023-02-17T00:13:26.065Z,27.47
2023-02-17T00:15:53.069Z,29.87
2023-02-17T00:18:19.892Z,32.90
2023-02-17T00:20:46.524Z,35.27
2023-02-17T00:23:13.532Z,29.87
2023-02-17T00:25:40.364Z,32.83
2023-02-17T00:28:07.425Z,36.67
2023-02-17T00:30:34.314Z,37.00
2023-02-17T00:33:01.010Z,32.23
2023-02-17T00:35:27.766Z,31.30
2023-02-17T00:37:54.374Z,30.10
2023-02-17T00:40:21.260Z,34.37
2023-02-17T00:42:49.254Z,34.83
2023-02-17T00:45:16.170Z,29.93
2023-02-17T00:47:42.811Z,31.13
2023-02-17T00:50:10.002Z,32.97
2023-02-17T00:52:36.737Z,29.93
2023-02-17T00:55:04.080Z,29.10
2023-02-17T00:57:32.453Z,30.40
2023-02-17T00:59:59.348Z,22.37
2023-02-17T01:02:26.122Z,24.40
2023-02-17T01:04:53.538Z,27.90
2023-02-17T01:07:20.314Z,35.87
2023-02-17T01:09:47.152Z,36.47
2023-02-17T01:12:13.881Z,31.87
2023-02-17T01:14:40.571Z,34.43
2023-02-17T01:17:07.345Z,31.97
2023-02-17T01:19:34.034Z,28.90
2023-02-17T01:22:01.374Z,21.63
2023-02-17T01:24:28.091Z,17.70
2023-02-17T01:26:55.028Z,18.57
2023-02-17T01:29:22.166Z,17.63
2023-02-17T01:31:48.872Z,17.20
2023-02-17T01:34:15.578Z,16.50
2023-02-17T01:36:42.296Z,25.67
2023-02-17T01:39:12.005Z,17.37
2023-02-17T01:41:38.628Z,22.60
2023-02-17T01:44:18.514Z,22.80
2023-02-17T01:46:47.685Z,22.10
2023-02-17T01:49:23.613Z,18.67
2023-02-17T01:51:56.963Z,16.77
2023-02-17T01:54:42.360Z,15.93
2023-02-17T01:57:11.719Z,17.20
2023-02-17T01:59:39.006Z,17.97
2023-02-17T02:02:06.944Z,18.40
2023-02-17T02:04:36.845Z,16.73
2023-02-17T02:07:10.757Z,17.03
2023-02-17T02:09:43.212Z,25.67
2023-02-17T02:12:22.224Z,55.23
2023-02-17T02:14:51.035Z,22.93
2023-02-17T02:17:39.808Z,23.63
2023-02-17T02:20:28.775Z,29.57
2023-02-17T02:23:49.876Z,22.70
2023-02-17T02:26:44.511Z,22.03
2023-02-17T02:29:39.170Z,23.88
2023-02-17T02:32:18.889Z,28.93
2023-02-17T02:34:52.442Z,28.93
2023-02-17T02:37:26.770Z,32.30
2023-02-17T02:39:55.512Z,26.23
2023-02-17T02:42:24.525Z,20.27
2023-02-17T02:44:51.697Z,32.73
2023-02-17T02:47:49.110Z,26.83
2023-02-17T02:50:38.907Z,28.37
2023-02-17T02:53:19.257Z,27.53
2023-02-17T02:56:13.847Z,26.30
2023-02-17T02:58:47.246Z,26.33
2023-02-17T03:01:45.180Z,27.33
2023-02-17T03:04:26.655Z,27.13
2023-02-17T03:06:58.964Z,21.57
2023-02-17T03:09:28.127Z,19.83
2023-02-17T03:11:57.378Z,18.93
2023-02-17T03:14:25.265Z,22.90
2023-02-17T03:16:52.716Z,22.13
2023-02-17T03:19:24.013Z,25.43
2023-02-17T03:22:05.794Z,25.63
2023-02-17T03:24:33.819Z,24.93
2023-02-17T03:27:00.506Z,24.70
2023-02-17T03:29:27.326Z,22.03
2023-02-17T03:31:54.226Z,23.13
2023-02-17T03:34:20.982Z,23.33
2023-02-17T03:36:47.680Z,24.73
2023-02-17T03:39:14.554Z,22.93
2023-02-17T03:41:41.271Z,20.57
2023-02-17T03:44:08.325Z,19.87
2023-02-17T03:46:35.415Z,22.97
2023-02-17T03:49:02.026Z,20.93
2023-02-17T03:51:28.711Z,28.33
2023-02-17T03:53:55.361Z,36.40
2023-02-17T03:56:22.149Z,32.13
2023-02-17T03:58:48.929Z,32.73
2023-02-17T04:01:16.040Z,26.30
2023-02-17T04:03:42.810Z,25.43
2023-02-17T04:06:10.600Z,25.67
2023-02-17T04:08:38.097Z,32.93
2023-02-17T04:11:06.659Z,36.27
2023-02-17T04:13:34.682Z,42.90
2023-02-17T04:16:01.615Z,41.30
2023-02-17T04:18:29.480Z,41.97
2023-02-17T04:20:56.572Z,44.37
2023-02-17T04:23:23.359Z,40.10
2023-02-17T04:25:50.298Z,39.20
2023-02-17T04:28:17.270Z,39.37
2023-02-17T04:30:48.974Z,43.37
2023-02-17T04:33:18.051Z,42.87
2023-02-17T04:35:45.255Z,43.03
2023-02-17T04:38:12.058Z,64.03
2023-02-17T04:40:39.135Z,89.37
2023-02-17T04:43:05.981Z,73.23
2023-02-17T04:45:32.731Z,55.47
2023-02-17T04:47:59.389Z,54.47
2023-02-17T04:50:26.292Z,57.70
2023-02-17T04:52:53.051Z,59.07
2023-02-17T04:55:20.845Z,57.50
2023-02-17T04:57:47.852Z,74.70
2023-02-17T05:00:14.760Z,68.10
2023-02-17T05:02:41.499Z,75.20
2023-02-17T05:05:09.270Z,64.90
2023-02-17T05:07:35.982Z,53.77
2023-02-17T05:10:02.892Z,57.53
2023-02-17T05:12:29.530Z,60.27
2023-02-17T05:14:56.255Z,65.00
2023-02-17T05:17:23.053Z,67.50
2023-02-17T05:19:49.752Z,78.00
2023-02-17T05:22:16.481Z,83.37
2023-02-17T05:24:43.276Z,83.90
2023-02-17T05:27:10.180Z,68.90
2023-02-17T05:29:36.894Z,57.13
2023-02-17T05:32:03.709Z,58.40
2023-02-17T05:34:30.771Z,57.60
2023-02-17T05:36:57.472Z,55.97
2023-02-17T05:39:24.278Z,51.90
2023-02-17T05:41:50.993Z,50.50
2023-02-17T05:44:18.608Z,67.23
2023-02-17T05:46:45.372Z,60.40
2023-02-17T05:49:12.057Z,60.97
2023-02-17T05:51:38.915Z,64.73
2023-02-17T05:54:06.250Z,71.87
2023-02-17T05:56:33.338Z,75.27
2023-02-17T05:59:00.704Z,65.00
2023-02-17T06:01:27.971Z,70.77
2023-02-17T06:03:54.727Z,77.40
2023-02-17T06:06:21.481Z,68.80
2023-02-17T06:08:48.233Z,63.47
2023-02-17T06:11:14.968Z,68.33
2023-02-17T06:13:41.674Z,68.93
2023-02-17T06:16:08.768Z,70.63
2023-02-17T06:18:35.668Z,75.87
2023-02-17T06:21:02.554Z,75.77
2023-02-17T06:23:29.471Z,82.07
2023-02-17T06:25:56.224Z,81.67
2023-02-17T06:28:22.917Z,79.80
2023-02-17T06:30:49.596Z,89.20
2023-02-17T06:33:16.333Z,86.23
2023-02-17T06:35:44.610Z,83.37
2023-02-17T06:38:20.409Z,70.20
2023-02-17T06:40:47.161Z,71.80
2023-02-17T06:43:14.005Z,94.03
2023-02-17T06:45:41.100Z,90.67
2023-02-17T06:48:07.950Z,73.17
2023-02-17T06:50:35.113Z,71.65
2023-02-17T06:53:01.839Z,68.53
2023-02-17T06:55:28.522Z,70.15
2023-02-17T06:57:55.183Z,78.88
2023-02-17T07:00:22.215Z,85.20
2023-02-17T07:02:49.076Z,91.18
2023-02-17T07:05:15.954Z,102.63
2023-02-17T07:07:42.888Z,102.18
2023-02-17T07:10:09.880Z,85.35
2023-02-17T07:12:36.647Z,56.33
2023-02-17T07:15:03.855Z,45.92
2023-02-17T07:17:31.482Z,45.70
2023-02-17T07:19:58.297Z,49.25
2023-02-17T07:22:26.750Z,46.50
2023-02-17T07:24:53.741Z,49.40
2023-02-17T07:27:20.421Z,45.58
2023-02-17T07:29:47.120Z,25.95
2023-02-17T07:32:13.798Z,44.63
2023-02-17T07:34:40.492Z,55.33
2023-02-17T07:37:08.417Z,68.40
2023-02-17T07:39:35.093Z,67.35
2023-02-17T07:42:05.259Z,61.65
2023-02-17T07:44:32.834Z,62.17
2023-02-17T07:47:00.717Z,65.43
2023-02-17T07:49:27.452Z,58.55
2023-02-17T07:51:54.204Z,40.25
2023-02-17T07:54:21.677Z,51.55
2023-02-17T07:56:49.239Z,48.10
2023-02-17T07:59:17.098Z,51.35
2023-02-17T08:01:43.835Z,63.58
2023-02-17T08:04:10.772Z,57.83
2023-02-17T08:06:40.113Z,53.00
2023-02-17T08:09:25.420Z,49.35
2023-02-17T08:14:38.511Z,60.40
2023-02-17T08:17:08.228Z,56.95
2023-02-17T08:19:47.401Z,61.90
2023-02-17T08:22:17.186Z,57.97
2023-02-17T08:24:43.968Z,55.47
2023-02-17T08:27:10.681Z,51.92
2023-02-17T08:29:37.566Z,41.17
2023-02-17T08:32:04.501Z,34.47
2023-02-17T08:34:34.179Z,25.67
2023-02-17T08:37:02.511Z,30.00
2023-02-17T08:39:29.265Z,25.42
2023-02-17T08:41:56.254Z,22.65
2023-02-17T08:44:23.510Z,21.30
2023-02-17T08:46:51.869Z,24.60
2023-02-17T08:49:21.689Z,28.25
2023-02-17T08:51:49.193Z,42.65
2023-02-17T08:54:15.958Z,30.77
2023-02-17T08:56:43.904Z,23.33
2023-02-17T08:59:11.982Z,25.98
2023-02-17T09:01:39.761Z,25.38
2023-02-17T09:04:08.843Z,26.00
2023-02-17T09:06:44.626Z,25.90
2023-02-17T09:09:14.879Z,19.55
2023-02-17T09:11:42.157Z,21.85
2023-02-17T09:14:09.077Z,27.25
2023-02-17T09:16:36.193Z,38.65
2023-02-17T09:19:03.320Z,23.63
2023-02-17T09:21:30.090Z,9.68
2023-02-17T09:23:57.124Z,10.65
2023-02-17T09:26:23.947Z,12.93
2023-02-17T09:28:50.780Z,15.80
2023-02-17T09:31:19.997Z,20.73
2023-02-17T09:33:50.568Z,19.58
2023-02-17T09:36:24.406Z,22.65
2023-02-17T09:38:52.225Z,19.40
2023-02-17T09:41:26.088Z,20.30
2023-02-17T09:43:53.776Z,16.13
2023-02-17T09:46:32.436Z,17.20
2023-02-17T09:49:15.313Z,13.73
2023-02-17T09:51:53.699Z,17.13
2023-02-17T09:54:26.415Z,18.20
2023-02-17T09:56:55.792Z,12.57
2023-02-17T09:59:32.584Z,11.25
2023-02-17T10:02:01.356Z,11.05
2023-02-17T10:04:37.509Z,12.95
2023-02-17T10:07:46.021Z,9.80
2023-02-17T10:10:25.615Z,4.63
2023-02-17T10:12:56.963Z,4.22
2023-02-17T10:15:27.727Z,8.32
2023-02-17T10:18:05.768Z,7.00
2023-02-17T10:20:36.268Z,8.63
2023-02-17T10:23:22.556Z,7.20
2023-02-17T10:26:14.151Z,15.35
2023-02-17T10:29:41.775Z,7.32
2023-02-17T10:32:25.284Z,8.30
2023-02-17T10:34:59.107Z,3.10
2023-02-17T10:37:48.437Z,3.47
2023-02-17T10:40:20.437Z,4.25
2023-02-17T10:42:49.788Z,2.10
2023-02-17T10:45:41.062Z,1.90
2023-02-17T10:48:19.304Z,2.20
2023-02-17T10:50:46.919Z,2.70
2023-02-17T10:53:17.639Z,3.90
2023-02-17T10:56:08.355Z,1.92
2023-02-17T10:58:44.223Z,2.97
2023-02-17T11:01:12.035Z,2.80
2023-02-17T11:03:41.104Z,1.75
2023-02-17T11:06:26.309Z,1.98
2023-02-17T11:09:00.037Z,1.77
2023-02-17T11:11:32.177Z,2.03
2023-02-17T11:14:23.816Z,1.88
2023-02-17T11:17:13.115Z,2.33
2023-02-17T11:19:39.946Z,2.60
2023-02-17T11:22:29.948Z,2.95
2023-02-17T11:25:01.817Z,2.83
2023-02-17T11:27:28.505Z,2.65
2023-02-17T11:30:07.038Z,2.58
2023-02-17T11:32:33.916Z,1.75
2023-02-17T11:35:06.326Z,1.92
2023-02-17T11:37:37.745Z,1.45
2023-02-17T11:40:26.340Z,1.80
2023-02-17T11:42:58.511Z,2.17
2023-02-17T11:45:29.433Z,1.95
2023-02-17T11:48:22.120Z,2.92
2023-02-17T11:51:25.701Z,2.17
2023-02-17T11:54:23.073Z,1.60
2023-02-17T11:57:18.736Z,2.50
2023-02-17T12:02:54.690Z,3.53
2023-02-17T12:05:56.273Z,1.42
2023-02-17T12:09:10.938Z,3.28
2023-02-17T12:11:37.657Z,1.20
2023-02-17T12:14:10.827Z,2.38
2023-02-17T12:17:02.855Z,3.80
2023-02-17T12:19:45.784Z,2.67
2023-02-17T12:22:15.438Z,2.15
2023-02-17T12:25:19.411Z,1.52
2023-02-17T12:28:07.582Z,2.08
2023-02-17T12:30:34.387Z,2.72
2023-02-17T12:33:19.678Z,1.50
2023-02-17T12:35:55.453Z,1.42
2023-02-17T12:38:33.005Z,3.92
2023-02-17T12:41:11.749Z,3.58
2023-02-17T12:43:48.052Z,6.85
2023-02-17T12:46:22.128Z,4.05
2023-02-17T12:49:07.554Z,1.60
2023-02-17T12:51:41.467Z,3.38
2023-02-17T12:54:22.933Z,7.88
2023-02-17T12:57:05.141Z,2.83
2023-02-17T12:59:39.262Z,3.10
2023-02-17T13:02:18.126Z,4.80
2023-02-17T13:04:52.549Z,5.97
2023-02-17T13:07:41.668Z,3.20
2023-02-17T13:10:30.076Z,4.20
2023-02-17T13:13:14.473Z,3.30
2023-02-17T13:15:46.281Z,3.73
2023-02-17T13:18:31.390Z,4.90
2023-02-17T13:20:58.194Z,5.15
2023-02-17T13:23:41.081Z,5.22
2023-02-17T13:26:20.640Z,5.53
2023-02-17T13:28:49.196Z,4.85
2023-02-17T13:31:26.277Z,6.00
2023-02-17T13:33:58.826Z,7.60
2023-02-17T13:36:28.207Z,8.60
2023-02-17T13:39:01.747Z,6.18
2023-02-17T13:41:48.808Z,8.43
2023-02-17T13:44:34.296Z,10.70
2023-02-17T13:47:06.162Z,8.88
2023-02-17T13:49:35.175Z,7.38
2023-02-17T13:52:17.532Z,8.65
2023-02-17T13:54:56.357Z,13.00
2023-02-17T13:57:29.246Z,13.82
2023-02-17T14:00:23.810Z,12.18
2023-02-17T14:03:37.967Z,12.13
2023-02-17T14:06:05.101Z,8.57
2023-02-17T14:08:42.966Z,16.65
2023-02-17T14:11:21.533Z,14.07
2023-02-17T14:13:51.424Z,18.65
2023-02-17T14:16:39.768Z,13.23
2023-02-17T14:19:19.441Z,15.48
2023-02-17T14:21:57.396Z,15.45
2023-02-17T14:24:44.574Z,20.85
2023-02-17T14:27:14.174Z,15.35
2023-02-17T14:29:50.281Z,15.90
2023-02-17T14:32:40.094Z,13.20
2023-02-17T14:35:14.108Z,20.35
2023-02-17T14:37:42.162Z,14.33
2023-02-17T14:40:18.377Z,16.27
2023-02-17T14:42:47.432Z,12.02
2023-02-17T14:45:15.327Z,16.08
2023-02-17T14:47:46.144Z,16.48
2023-02-17T14:50:13.370Z,15.18
2023-02-17T14:52:44.331Z,20.77
2023-02-17T14:55:18.898Z,10.35
2023-02-17T14:57:45.631Z,13.90
2023-02-17T15:00:14.478Z,13.32
2023-02-17T15:02:41.308Z,14.60
2023-02-17T15:05:08.506Z,14.30
2023-02-17T15:07:36.280Z,38.83
2023-02-17T15:10:14.342Z,28.48
2023-02-17T15:12:40.980Z,27.67
2023-02-17T15:15:13.903Z,26.48
2023-02-17T15:17:40.710Z,27.20
2023-02-17T15:20:10.269Z,37.05
2023-02-17T15:22:41.666Z,40.83
2023-02-17T15:25:16.857Z,24.27
2023-02-17T15:27:44.119Z,28.50
2023-02-17T15:30:13.940Z,32.88
2023-02-17T15:32:41.072Z,28.98
2023-02-17T15:35:18.230Z,53.75
2023-02-17T15:37:45.090Z,45.55
2023-02-17T15:40:28.401Z,53.65
2023-02-17T15:43:05.997Z,58.10
2023-02-17T15:45:33.462Z,65.18
2023-02-17T15:48:06.381Z,75.13
2023-02-17T15:50:33.203Z,72.93
2023-02-17T15:52:59.957Z,73.07
2023-02-17T15:55:28.315Z,65.30
2023-02-17T15:57:58.586Z,70.47
2023-02-17T16:00:28.409Z,59.38
2023-02-17T16:02:55.708Z,56.63
2023-02-17T16:05:24.426Z,51.72
2023-02-17T16:07:51.728Z,39.47
2023-02-17T16:10:21.485Z,38.15
2023-02-17T16:12:50.505Z,34.60
2023-02-17T16:15:23.033Z,47.70
2023-02-17T16:17:53.376Z,50.72
2023-02-17T16:20:29.228Z,56.88
2023-02-17T16:22:56.639Z,48.75
2023-02-17T16:25:23.615Z,50.42
2023-02-17T16:27:52.734Z,52.38
2023-02-17T16:30:19.556Z,46.97
2023-02-17T16:32:47.048Z,47.05
2023-02-17T16:35:15.600Z,46.20
2023-02-17T16:37:46.365Z,43.35
2023-02-17T16:40:17.200Z,43.80
2023-02-17T16:42:44.126Z,44.85
2023-02-17T16:45:15.763Z,60.60
2023-02-17T16:47:45.674Z,55.90
2023-02-17T16:50:21.608Z,50.10
2023-02-17T16:52:48.395Z,42.03
2023-02-17T16:55:17.487Z,39.75
2023-02-17T16:57:45.663Z,39.13
2023-02-17T17:00:16.880Z,42.97
2023-02-17T17:02:45.136Z,49.28
2023-02-17T17:05:12.894Z,35.90
2023-02-17T17:07:40.851Z,40.65
2023-02-17T17:10:23.397Z,54.67
2023-02-17T17:12:50.099Z,57.90
2023-02-17T17:15:17.817Z,59.80
2023-02-17T17:17:48.566Z,66.43
2023-02-17T17:20:18.911Z,42.40
2023-02-17T17:22:46.818Z,31.95
2023-02-17T17:25:14.682Z,26.98
2023-02-17T17:27:41.969Z,25.92
2023-02-17T17:30:17.491Z,21.33
2023-02-17T17:32:44.344Z,34.17
2023-02-17T17:35:11.065Z,58.45
2023-02-17T17:37:39.467Z,66.72
2023-02-17T17:40:07.329Z,54.83
2023-02-17T17:42:37.657Z,54.47
2023-02-17T17:45:04.578Z,57.20
2023-02-17T17:47:31.517Z,52.58
2023-02-17T17:49:58.473Z,49.38
2023-02-17T17:52:25.327Z,43.60
2023-02-17T17:54:52.231Z,40.15
2023-02-17T17:57:18.895Z,61.47
2023-02-17T17:59:45.719Z,49.67
2023-02-17T18:02:12.462Z,48.20
2023-02-17T18:04:39.682Z,51.90
2023-02-17T18:07:06.633Z,51.00
2023-02-17T18:09:36.803Z,51.65
2023-02-17T18:12:15.960Z,61.88
2023-02-17T18:14:44.282Z,52.90
2023-02-17T18:17:14.086Z,55.05
2023-02-17T18:19:41.496Z,48.92
2023-02-17T18:22:08.254Z,50.40
2023-02-17T18:24:35.067Z,45.78
2023-02-17T18:27:01.827Z,47.25
2023-02-17T18:29:28.501Z,48.35
2023-02-17T18:31:55.316Z,50.30
2023-02-17T18:34:22.294Z,57.75
2023-02-17T18:36:49.196Z,59.65
2023-02-17T18:39:16.115Z,44.78
2023-02-17T18:41:43.032Z,42.50
2023-02-17T18:44:11.631Z,46.03
2023-02-17T18:46:39.339Z,47.43
2023-02-17T18:49:06.937Z,65.28
2023-02-17T18:51:34.113Z,95.32
2023-02-17T18:54:01.869Z,90.78
2023-02-17T18:56:31.600Z,53.27
2023-02-17T18:58:59.159Z,38.00
2023-02-17T19:01:28.829Z,42.43
2023-02-17T19:03:56.918Z,58.93
2023-02-17T19:06:27.002Z,64.83
2023-02-17T19:08:53.953Z,60.93
2023-02-17T19:11:22.606Z,73.63
2023-02-17T19:13:50.330Z,72.70
2023-02-17T19:16:21.686Z,76.77
2023-02-17T19:18:49.169Z,62.00
2023-02-17T19:21:16.478Z,71.93
2023-02-17T19:23:43.803Z,64.07
2023-02-17T19:26:13.175Z,70.10
2023-02-17T19:28:41.527Z,66.37
2023-02-17T19:31:10.688Z,88.77
2023-02-17T19:33:37.953Z,80.38
2023-02-17T19:36:13.319Z,77.00
2023-02-17T19:38:40.017Z,63.03
2023-02-17T19:41:09.249Z,51.17
2023-02-17T19:43:36.238Z,47.40
2023-02-17T19:46:03.522Z,43.67
2023-02-17T19:48:30.570Z,49.03
2023-02-17T19:51:03.836Z,53.67
2023-02-17T19:53:31.891Z,64.80
2023-02-17T19:56:12.811Z,48.77
2023-02-17T19:58:41.326Z,46.20
2023-02-17T20:01:11.240Z,61.03
2023-02-17T20:03:38.270Z,71.67
2023-02-17T20:06:19.286Z,72.17
2023-02-17T20:08:46.655Z,79.90
2023-02-17T20:11:14.272Z,83.17
2023-02-17T20:13:46.190Z,83.63
2023-02-17T20:16:15.249Z,82.57
2023-02-17T20:18:44.891Z,57.37
2023-02-17T20:21:14.364Z,56.17
2023-02-17T20:23:41.055Z,55.03
2023-02-17T20:26:21.722Z,57.50
2023-02-17T20:28:49.295Z,53.22
2023-02-17T20:31:16.692Z,44.87
2023-02-17T20:33:44.392Z,40.20
2023-02-17T20:36:12.095Z,41.20
2023-02-17T20:38:39.778Z,52.90
2023-02-17T20:41:14.146Z,53.20
2023-02-17T20:43:41.329Z,69.50
2023-02-17T20:46:12.925Z,61.30
2023-02-17T20:48:39.732Z,46.23
2023-02-17T20:51:06.499Z,38.33
2023-02-17T20:53:33.811Z,45.07
2023-02-17T20:56:00.698Z,42.57
2023-02-17T20:58:27.416Z,40.90
2023-02-17T21:00:54.118Z,48.30
2023-02-17T21:03:20.857Z,53.37
2023-02-17T21:05:47.959Z,63.87
2023-02-17T21:08:14.627Z,61.90
2023-02-17T21:10:41.321Z,59.33
2023-02-17T21:13:08.059Z,62.77
2023-02-17T21:15:34.919Z,66.20
2023-02-17T21:18:01.732Z,55.80
2023-02-17T21:20:28.446Z,62.07
2023-02-17T21:22:55.113Z,64.77
2023-02-17T21:25:21.847Z,67.33
2023-02-17T21:27:48.529Z,57.73
2023-02-17T21:30:15.528Z,43.03
2023-02-17T21:32:42.576Z,34.23
2023-02-17T21:35:10.764Z,29.63
2023-02-17T21:37:39.115Z,25.67
2023-02-17T21:40:07.841Z,24.50
2023-02-17T21:42:55.570Z,27.17
2023-02-17T21:45:22.776Z,36.97
2023-02-17T21:47:49.523Z,50.43
2023-02-17T21:50:16.903Z,28.90
2023-02-17T21:52:43.611Z,30.73
2023-02-17T21:55:10.496Z,36.57
2023-02-17T21:57:37.159Z,46.67
2023-02-17T22:00:04.541Z,49.20
2023-02-17T22:02:31.186Z,51.40
2023-02-17T22:04:57.893Z,50.43
2023-02-17T22:07:24.567Z,48.50
2023-02-17T22:09:51.347Z,31.27
2023-02-17T22:12:19.042Z,30.27
2023-02-17T22:14:45.790Z,34.83
2023-02-17T22:17:12.503Z,31.50
2023-02-17T22:19:39.150Z,30.37
2023-02-17T22:22:05.861Z,29.30
2023-02-17T22:24:32.559Z,32.77
2023-02-17T22:26:59.358Z,40.93
2023-02-17T22:29:26.169Z,48.77
2023-02-17T22:31:55.931Z,52.33
2023-02-17T22:34:23.707Z,41.73
2023-02-17T22:36:50.419Z,39.63
2023-02-17T22:39:17.863Z,37.30
2023-02-17T22:41:44.668Z,35.77
2023-02-17T22:44:11.349Z,41.83
2023-02-17T22:46:38.241Z,41.97
2023-02-17T22:49:05.335Z,38.80
2023-02-17T22:51:36.199Z,34.97
2023-02-17T22:54:07.635Z,28.38
2023-02-17T22:56:34.436Z,23.10
2023-02-17T22:59:03.890Z,27.10
2023-02-17T23:01:34.613Z,18.77
2023-02-17T23:04:02.099Z,18.20
2023-02-17T23:06:31.945Z,21.00
2023-02-17T23:09:00.119Z,30.20
2023-02-17T23:11:48.855Z,23.17
2023-02-17T23:14:18.769Z,24.43
2023-02-17T23:16:45.871Z,25.23
2023-02-17T23:19:16.464Z,28.00
2023-02-17T23:21:44.972Z,32.47
2023-02-17T23:24:12.041Z,37.47
2023-02-17T23:26:39.166Z,37.53
2023-02-17T23:29:05.999Z,32.50
2023-02-17T23:31:33.164Z,25.67
2023-02-17T23:33:59.968Z,24.17
2023-02-17T23:36:26.677Z,21.40
2023-02-17T23:38:53.403Z,18.67
2023-02-17T23:41:20.028Z,20.20
2023-02-17T23:43:46.755Z,14.87
2023-02-17T23:46:13.489Z,13.93
2023-02-17T23:48:40.281Z,16.80
2023-02-17T23:51:07.216Z,17.47
2023-02-17T23:53:34.130Z,16.67
2023-02-17T23:56:14.291Z,15.53
2023-02-17T23:58:41.220Z,20.03
